Impacts TAF Board
For situational awareness. Not to be used for flight planning purposes.
IDs:

KTPA - Tampa Intl Arpt, FL, US

Issued at 2322 UTC 22 Oct 2018
Updated at 0241 UTC 23 Oct 2018
Potential Impact None Slight Moderate High
Time<<24/03Z 24/04Z 24/05Z 24/06Z 24/07Z 24/08Z 24/09Z 24/10Z 24/11Z 24/12Z 24/13Z 24/14Z 24/15Z
Type PRVL PRVL PRVL
VIS >6 >6 >6
CIG 120 120 120
Cover BKN BKN BKN
FltCat VFR VFR VFR
WX -- -- --
WDir 320 320 320
WSpd 6 6 6
WGst -- -- --
Raw TAF
KTPA 222322Z 2300/2406 07005KT P6SM FEW050 SCT250
  FM231800 24006KT P6SM SCT040 SCT120 BKN250
  FM232100 32006KT P6SM SCT050 BKN120


METAR Board
Radar Display
Forecast Discussion
For situational awareness. Not to be used for flight planning purposes.